Latest  Newer  Older  Last 2 hours slideshow  Last 24 hours slideshow  Refresh every 5 minutes 
Current image  Latest image  Rain/snow radar  Cloud coverage sat images 

All time is UTC (add 2 hours to UTC in wintertime, 3 hours to UTC in DST for Latvia local time)

2019/09/22 01:20 EVRA 220120Z 27005KT 230V310 9999 SCT046 13/10 Q1012 NOSIG
2019/09/22 01:20 EVLA 220120Z AUTO 00000KT 0650 R24/1000U R06/0750N FG SCT004/// 07/07 Q1015
2019/09/22 01:20 EVVA 220120Z AUTO 28010KT CAVOK 15/12 Q1013
2019/09/22 01:20 EYKA 220120Z 27010KT 9999 OVC004 11/10 Q1015
2019/09/22 01:20 EYPA 220120Z AUTO 26003KT 170V330 9999 OVC009/// 14/13 Q1016
2019/09/22 00:50 EYSA 220050Z AUTO 25012KT 9999NDV NCD 10/08 Q1015
2019/09/22 01:20 EYVI 220120Z 30007KT 9999 FEW007 10/09 Q1015 NOSIG
2019/09/21 07:50 EEKA 210750Z 30007KT 250V350 9999 SCT023 OVC037 14/10 Q1009
2019/09/22 00:50 EEKE 220050Z AUTO 33007KT 300V360 9999NDV FEW021 13/10 Q1012
2019/09/21 12:50 EEPU 211250Z 29013G23KT 9999 BKN021 OVC043 15/11 Q1008
2019/09/22 01:20 EETN 220120Z 35007KT 320V020 9999 SCT025 08/04 Q1011
2019/09/22 00:50 EETU 220050Z AUTO 30005KT 270V340 9999 BKN018/// BKN023/// OVC051/// 08/07 Q1009
   RIGA AIRPORT     EVRA               56 55N  023 58E   10   X     T          6 LV
   LIEPAJA INTL     EVLA        26406  56 31N  021 06E    4   X                8 LV
   VENTPILS         EVVA               57 21N  021 33E    6   X                8 LV
   KAUNAS           EYKA               54 54N  023 55E   77   X     T          6 LT
   PALANGA INTL     EYPA               55 55N  021 03E   10   X                6 LT
   SIAULIAI INTL    EYSA               55 54N  023 24E  135   X     T          6 LT
   VILNIUS INTL     EYVI        26730  54 38N  025 17E  197   X     T          6 LT
   KARDLA           EEKA        26116  58 59N  022 50E    4   X                8 EE
   KURESSAARE       EEKE               58 14N  022 31E    4   X                8 EE
   PARNU            EEPU               58 25N  024 28E   14   X                8 EE
   TALLINN          EETN        26038  59 24N  024 49E   40   X     T          8 EE
   TARTU            EETU               58 19N  026 41E   67   X                8 EE